Terminal Aerodrome Forecast
Issued by NWS

Home | Current Version | Previous Version | Text Only | Print | Product List | Glossary On
Versions: 1 2 3 4 5 6 7 8 9 10 11 12 13 14 15
000
FTUS46 KSEW 040530
TAFBLI
TAF
KBLI 040530Z 0406/0506 17007KT 6SM -RA BR FEW010 SCT016 OVC025
      TEMPO 0408/0412 5SM -RA BR OVC007
     FM041200 22007KT P6SM -SHRA BKN015 OVC025
     FM041600 25008KT P6SM -SHRA BKN025
     FM042000 34008KT P6SM SCT025 BKN050
     FM050200 16004KT P6SM -SHSN SCT020 BKN045 OVC070=

USA.gov is the U.S. government's official web portal to all federal, state and local government web resources and services.